Wetterdaten: aktuell Mittwoch, 01.10.2014 13:51
Datum Zeit Temperatur Feuchte Luftdruck Regen Wind Richtung Richtung Taupunkt Windchill
01.10.2014 13:51 19,9 C 75 % 1026,4 hPa 0,0 l/m 15,3 km/h (3 Bft) S-SW 205 15,3 C 19,9 C
01.10.2014 12:51 19,1 C 83 % 1026,4 hPa 0,0 l/m 13,5 km/h (3 Bft) S67.5 190 16,1 C 19,1 C
01.10.2014 11:51 17,3 C 90 % 1026,6 hPa 0,0 l/m 10,0 km/h (2 Bft) S-SW 205 15,6 C 17,3 C
01.10.2014 10:51 15,7 C 97 % 1025,7 hPa 0,0 l/m 5,7 km/h (1 Bft) SO22.5 145 15,2 C 15,7 C
01.10.2014 09:51 14,4 C 98 % 1025,8 hPa 0,0 l/m 14,1 km/h (3 Bft) S-SO45 160 14,1 C 14,4 C
01.10.2014 08:51 13,2 C 97 % 1025,9 hPa 0,0 l/m 4,2 km/h (1 Bft) SO 130 12,7 C 13,2 C
01.10.2014 07:51 13,4 C 97 % 1024,9 hPa 0,0 l/m 7,3 km/h (2 Bft) SO 130 12,9 C 13,4 C
01.10.2014 06:51 13,6 C 96 % 1024,9 hPa 0,0 l/m 5,7 km/h (1 Bft) O 100 13,0 C 13,6 C
01.10.2014 05:51 13,9 C 96 % 1024,8 hPa 17,6 l/m 0,5 km/h (0 Bft) O-SO 120 13,3 C 13,9 C
01.10.2014 04:48 14,6 C 88 % 1025,8 hPa 0,0 l/m 0,0 km/h (0 Bft) O 80 12,6 C 14,6 C
01.10.2014 03:48 15,3 C 85 % 1024,7 hPa 1378,8 l/m 2,8 km/h (1 Bft) O 80 12,8 C 15,3 C
01.10.2014 02:48 90,0 C 0 % 1019,8 hPa 1378,8 l/m 3,9 km/h (1 Bft) S-SW 205 -60,0 C 90,0 C
01.10.2014 01:48 18,8 C 75 % 1024,4 hPa 0,0 l/m 2,2 km/h (1 Bft) S-SW 205 14,3 C 18,8 C
01.10.2014 00:48 19,8 C 74 % 1024,3 hPa 0,0 l/m 4,9 km/h (1 Bft) S-SW 210 15,0 C 19,8 C
30.09.2014 23:48 20,2 C 74 % 1024,3 hPa 2757,6 l/m 11,8 km/h (2 Bft) S-SW 205 15,4 C 20,2 C
30.09.2014 22:48 21,0 C 72 % 1024,2 hPa 0,0 l/m 3,6 km/h (1 Bft) S-SW 195 15,8 C 21,0 C
30.09.2014 21:48 20,4 C 74 % 1024,3 hPa 2757,6 l/m 11,8 km/h (2 Bft) S-SW 205 15,6 C 20,4 C
30.09.2014 20:48 19,4 C 79 % 1024,4 hPa 2757,6 l/m 17,0 km/h (3 Bft) S-SW22.5 195 15,7 C 19,4 C
30.09.2014 19:48 18,0 C 91 % 1024,5 hPa 0,0 l/m 5,7 km/h (1 Bft) S22.5 180 16,5 C 18,0 C
30.09.2014 18:48 16,6 C 97 % 1024,6 hPa 1378,8 l/m 10,9 km/h (2 Bft) S45 180 16,1 C 16,6 C
30.09.2014 17:48 16,0 C 97 % 1024,7 hPa 4136,7 l/m 9,6 km/h (2 Bft) S 190 15,5 C 16,0 C
30.09.2014 16:48 15,2 C 98 % 1023,7 hPa 1378,8 l/m 4,6 km/h (1 Bft) SO22.5 125 14,9 C 15,2 C
30.09.2014 15:48 24,5 C 98 % 1022,9 hPa 1378,8 l/m 8,3 km/h (2 Bft) SO 145 24,2 C 24,5 C
30.09.2014 14:48 14,9 C 97 % 1023,7 hPa 4136,4 l/m 7,9 km/h (2 Bft) SO 130 14,4 C 14,9 C
30.09.2014 14:00 14,8 C 97 % 1022,7 hPa 0,0 l/m 2,8 km/h (1 Bft) SO 125 14,3 C 14,8 C
_ Min-Zeit 02:57 14:45 18:45 - 01:00 - - 14:45 02:57
Minimum _ 0,3 C 0 % 0,0 hPa - 0,0 km/h (0 Bft) - - -60,0 C 0,3 C
_ Max-Zeit 14:45 14:57 10:18 17:03 19:30 - - 00:45 14:45
Maximum _ 90,0 C 98 % 1026,8 hPa 1378,8 l/m 250,0 km/h
N (16 Bft)
- - 81,9 C 90,0 C
Durchschnitt _ 17,4 C 88 % 992,8 hPa #23457,7 l/m 9,4 km/h (2 Bft) S-SW - 14,0 C 17,4 C